createdAt,value
2022-08-19T00:02:28.441Z,100.00
2022-08-19T00:12:49.966Z,100.00
2022-08-19T00:23:11.489Z,100.00
2022-08-19T00:33:33.655Z,100.00
2022-08-19T00:44:11.262Z,100.00
2022-08-19T00:54:33.982Z,100.00
2022-08-19T01:04:56.290Z,100.00
2022-08-19T01:15:25.501Z,100.00
2022-08-19T01:25:53.444Z,100.00
2022-08-19T01:36:26.952Z,100.00
2022-08-19T01:46:49.517Z,100.00
2022-08-19T01:57:13.628Z,100.00
2022-08-19T02:07:36.756Z,100.00
2022-08-19T02:18:01.697Z,100.00
2022-08-19T02:28:23.303Z,100.00
2022-08-19T02:38:47.108Z,100.00
2022-08-19T02:49:17.499Z,100.00
2022-08-19T02:59:39.229Z,100.00
2022-08-19T03:10:00.772Z,100.00
2022-08-19T03:20:22.354Z,100.00
2022-08-19T03:30:57.122Z,100.00
2022-08-19T03:41:21.986Z,100.00
2022-08-19T03:51:43.968Z,100.00
2022-08-19T04:02:10.213Z,100.00
2022-08-19T04:12:32.160Z,100.00
2022-08-19T04:22:53.856Z,100.00
2022-08-19T04:33:17.776Z,100.00
2022-08-19T04:43:49.480Z,100.00
2022-08-19T04:54:11.672Z,100.00
2022-08-19T05:04:33.782Z,100.00
2022-08-19T05:14:55.493Z,100.00
2022-08-19T05:25:20.416Z,100.00
2022-08-19T05:35:42.344Z,100.00
2022-08-19T05:46:06.637Z,100.00
2022-08-19T05:56:28.235Z,100.00
2022-08-19T06:06:52.632Z,100.00
2022-08-19T06:17:14.427Z,100.00
2022-08-19T06:27:37.843Z,100.00
2022-08-19T06:38:01.269Z,100.00
2022-08-19T06:48:22.807Z,99.23
2022-08-19T06:58:51.657Z,98.62
2022-08-19T07:09:18.326Z,97.75
2022-08-19T07:19:42.253Z,93.17
2022-08-19T07:30:05.962Z,95.52
2022-08-19T07:40:27.490Z,93.72
2022-08-19T07:50:49.661Z,89.77
2022-08-19T08:01:15.553Z,90.17
2022-08-19T08:11:37.883Z,90.05
2022-08-19T08:22:01.945Z,90.15
2022-08-19T08:32:23.929Z,88.96
2022-08-19T08:42:55.908Z,87.32
2022-08-19T08:53:18.382Z,86.63
2022-08-19T09:03:51.869Z,85.00
2022-08-19T09:14:49.440Z,84.05
2022-08-19T09:25:10.173Z,81.66
2022-08-19T09:35:32.054Z,80.31
2022-08-19T09:46:15.689Z,80.35
2022-08-19T09:56:39.572Z,79.21
2022-08-19T10:07:04.056Z,78.44
2022-08-19T10:17:27.579Z,73.00
2022-08-19T10:27:55.958Z,70.76
2022-08-19T10:38:17.824Z,69.16
2022-08-19T10:48:40.219Z,69.72
2022-08-19T10:59:04.330Z,63.80
2022-08-19T11:09:33.897Z,63.60
2022-08-19T11:19:56.386Z,60.72
2022-08-19T11:30:18.315Z,57.09
2022-08-19T11:40:39.955Z,57.31
2022-08-19T11:51:09.731Z,58.06
2022-08-19T12:01:32.408Z,57.67
2022-08-19T12:11:54.074Z,56.42
2022-08-19T12:22:15.707Z,55.76
2022-08-19T12:32:37.796Z,55.21
2022-08-19T12:43:00.154Z,53.53
2022-08-19T12:53:21.691Z,54.77
2022-08-19T13:03:44.234Z,56.26
2022-08-19T13:14:06.559Z,58.38
2022-08-19T13:24:32.782Z,56.37
2022-08-19T13:34:55.810Z,56.67
2022-08-19T13:45:21.184Z,49.51
2022-08-19T13:55:44.658Z,48.00
2022-08-19T14:06:06.672Z,52.96
2022-08-19T14:16:28.616Z,56.65
2022-08-19T14:26:50.545Z,54.06
2022-08-19T14:37:15.522Z,54.55
2022-08-19T14:47:37.202Z,57.56
2022-08-19T14:58:02.217Z,55.43
2022-08-19T15:08:28.491Z,54.80
2022-08-19T15:18:52.021Z,55.06
2022-08-19T15:29:16.797Z,56.17
2022-08-19T15:39:38.374Z,54.81
2022-08-19T15:50:00.951Z,56.79
2022-08-19T16:00:41.352Z,59.42
2022-08-19T16:11:02.995Z,58.05
2022-08-19T16:21:27.445Z,57.85
2022-08-19T16:31:50.008Z,55.72
2022-08-19T16:42:12.287Z,56.36
2022-08-19T16:52:34.870Z,58.61
2022-08-19T17:02:56.538Z,57.28
2022-08-19T17:13:18.202Z,58.28
2022-08-19T17:23:42.663Z,59.01
2022-08-19T17:34:05.645Z,60.27
2022-08-19T17:44:28.529Z,61.69
2022-08-19T17:54:50.076Z,61.67
2022-08-19T18:05:13.043Z,59.91
2022-08-19T18:15:34.783Z,61.83
2022-08-19T18:25:56.328Z,61.30
2022-08-19T18:36:31.955Z,60.30
2022-08-19T18:47:18.257Z,64.74
2022-08-19T18:57:39.791Z,70.04
2022-08-19T19:08:01.687Z,74.35
2022-08-19T19:18:23.296Z,76.65
2022-08-19T19:28:46.541Z,78.81
2022-08-19T19:39:08.529Z,82.08
2022-08-19T19:49:32.508Z,83.40
2022-08-19T19:59:54.287Z,85.97
2022-08-19T20:10:15.923Z,86.17
2022-08-19T20:20:37.864Z,88.11
2022-08-19T20:30:59.440Z,88.57
2022-08-19T20:41:21.276Z,86.44
2022-08-19T20:51:43.301Z,87.23
2022-08-19T21:02:04.990Z,90.05
2022-08-19T21:12:27.059Z,87.23
2022-08-19T21:22:49.039Z,85.95
2022-08-19T21:33:11.339Z,85.25
2022-08-19T21:43:34.562Z,85.48
2022-08-19T21:53:56.479Z,84.11
2022-08-19T22:04:20.178Z,82.80
2022-08-19T22:14:41.686Z,83.24
2022-08-19T22:25:29.061Z,83.66
2022-08-19T22:35:53.763Z,84.45
2022-08-19T22:46:17.587Z,89.00
2022-08-19T22:56:39.489Z,100.00
2022-08-19T23:07:01.704Z,100.00
2022-08-19T23:17:23.269Z,100.00
2022-08-19T23:28:04.089Z,100.00
2022-08-19T23:38:28.021Z,100.00
2022-08-19T23:48:49.900Z,100.00
2022-08-19T23:59:11.494Z,100.00
